Accueil
METAR-TAF:

METAR-TAF

Aéroports :

Bowers Field

Ellensburg, Washington, États-Unis

latitude: 47-02-01N, longitude: 120-31-45W, altitude: 536 m

Observation

Le bulletin a été fait il y a 20 minutes, à 22:53 UTC
Vent 29 kt de nord-ouest avec des rafales jusqu'à 39 kt
Température 19°C
Humidité 37%
Pression 1016 hPa
Visibilité: 16.1 km
Ciel clair

METAR: KELN 262253Z AUTO 31029G39KT 10SM CLR 19/04 A2999 RMK AO2 PK WND 30041/2239 SLP152 T01940044

Heure: 16:13 (23:13 UTC)


TAF: absent

Observations et prévisions météorologiques de plus de 4000 aéroports (messages METAR et TAF).

Les stations disponibles sont représentées par des disques jaunes et rouges sur la carte.

Passer la souris dessus pour voir le nom de la station.

Cliquer dessus pour voir les observations et prévisions météorologiques.

Pour changer de carte: cliquez sur les boutons verts avec une croix noire pour zoomer, sur le bouton vert avec un tiret pour effectuer un zoom arrière, ou sur les flèches vertes pour les cartes adjacentes.


METAR-TAF: